createdAt,value
2022-07-30T04:01:32.622Z,100903.00
2022-07-30T04:04:06.694Z,100923.00
2022-07-30T04:06:39.586Z,100918.00
2022-07-30T04:09:09.958Z,100916.00
2022-07-30T04:11:41.332Z,100924.00
2022-07-30T04:14:10.229Z,100930.00
2022-07-30T04:16:47.538Z,100927.00
2022-07-30T04:19:23.506Z,100933.00
2022-07-30T04:21:54.890Z,100930.00
2022-07-30T04:24:24.681Z,100928.00
2022-07-30T04:26:53.764Z,100938.00
2022-07-30T04:29:24.727Z,100952.00
2022-07-30T04:31:56.088Z,100945.00
2022-07-30T04:34:24.247Z,100953.00
2022-07-30T04:36:52.353Z,100950.00
2022-07-30T04:39:20.695Z,100949.00
2022-07-30T04:41:50.190Z,100949.00
2022-07-30T04:44:19.892Z,100947.00
2022-07-30T04:46:48.502Z,100943.00
2022-07-30T04:49:19.943Z,100940.00
2022-07-30T04:51:50.069Z,100946.00
2022-07-30T04:54:20.497Z,100953.00
2022-07-30T04:56:53.802Z,100945.00
2022-07-30T04:59:25.806Z,100952.00
2022-07-30T05:01:58.313Z,100947.00
2022-07-30T05:04:30.123Z,100949.00
2022-07-30T05:07:00.333Z,100954.00
2022-07-30T05:09:29.477Z,100936.00
2022-07-30T05:11:59.858Z,100938.00
2022-07-30T05:14:29.734Z,100938.00
2022-07-30T05:16:58.285Z,100947.00
2022-07-30T05:19:28.072Z,100938.00
2022-07-30T05:21:56.684Z,100945.00
2022-07-30T05:24:24.769Z,100939.00
2022-07-30T05:26:53.250Z,100936.00
2022-07-30T05:29:21.376Z,100937.00
2022-07-30T05:31:49.751Z,100934.00
2022-07-30T05:34:18.080Z,100934.00
2022-07-30T05:36:47.577Z,100939.00
2022-07-30T05:39:16.748Z,100939.00
2022-07-30T05:41:44.813Z,100942.00
2022-07-30T05:44:13.113Z,100946.00
2022-07-30T05:46:41.599Z,100950.00
2022-07-30T05:49:09.832Z,100948.00
2022-07-30T05:51:38.014Z,100956.00
2022-07-30T05:54:07.703Z,100963.00
2022-07-30T05:56:36.005Z,100951.00
2022-07-30T05:59:04.806Z,100954.00
2022-07-30T06:01:32.921Z,100958.00
2022-07-30T06:04:01.142Z,100957.00
2022-07-30T06:06:29.288Z,100962.00
2022-07-30T06:08:57.406Z,100965.00
2022-07-30T06:11:26.794Z,100969.00
2022-07-30T06:13:54.902Z,100963.00
2022-07-30T06:16:23.128Z,100972.00
2022-07-30T06:18:51.368Z,100965.00
2022-07-30T06:21:19.470Z,100964.00
2022-07-30T06:23:47.586Z,100964.00
2022-07-30T06:26:16.060Z,100969.00
2022-07-30T06:28:45.492Z,100966.00
2022-07-30T06:31:13.601Z,100975.00
2022-07-30T06:33:41.797Z,100972.00
2022-07-30T06:36:14.351Z,100978.00
2022-07-30T06:38:42.819Z,100961.00
2022-07-30T06:41:11.432Z,100980.00
2022-07-30T06:43:39.598Z,100980.00
2022-07-30T06:46:09.147Z,100973.00
2022-07-30T06:48:37.628Z,100978.00
2022-07-30T06:51:05.842Z,100985.00
2022-07-30T06:53:33.896Z,100985.00
2022-07-30T06:56:10.450Z,100989.00
2022-07-30T06:58:38.577Z,100987.00
2022-07-30T07:01:11.199Z,100991.00
2022-07-30T07:03:40.714Z,100986.00
2022-07-30T07:06:09.460Z,100990.00
2022-07-30T07:08:38.353Z,100997.00
2022-07-30T07:11:06.519Z,100991.00
2022-07-30T07:13:34.714Z,100990.00
2022-07-30T07:16:03.065Z,100992.00
2022-07-30T07:18:32.483Z,100991.00
2022-07-30T07:21:00.590Z,100991.00
2022-07-30T07:23:41.467Z,100985.00
2022-07-30T07:26:12.107Z,100987.00
2022-07-30T07:28:41.142Z,100991.00
2022-07-30T07:31:09.499Z,100995.00
2022-07-30T07:33:40.527Z,100991.00
2022-07-30T07:36:08.805Z,100997.00
2022-07-30T07:38:37.811Z,100994.00
2022-07-30T07:41:06.436Z,100992.00
2022-07-30T07:43:34.603Z,100995.00
2022-07-30T07:46:02.765Z,100996.00
2022-07-30T07:48:31.058Z,100993.00
2022-07-30T07:51:01.040Z,100994.00
2022-07-30T07:53:29.175Z,101004.00
2022-07-30T07:55:57.498Z,100997.00
2022-07-30T07:58:26.459Z,101002.00
2022-07-30T08:00:55.521Z,101005.00
2022-07-30T08:03:23.866Z,101002.00
2022-07-30T08:06:00.991Z,101005.00
2022-07-30T08:08:37.499Z,101008.00
2022-07-30T08:11:07.011Z,101001.00
2022-07-30T08:13:49.156Z,101012.00
2022-07-30T08:16:21.372Z,101010.00
2022-07-30T08:18:49.757Z,101004.00
2022-07-30T08:21:18.007Z,101005.00
2022-07-30T08:23:47.435Z,101009.00
2022-07-30T08:26:15.557Z,101007.00
2022-07-30T08:28:45.531Z,101003.00
2022-07-30T08:31:13.655Z,101001.00
2022-07-30T08:33:41.701Z,101003.00
2022-07-30T08:36:10.351Z,101005.00
2022-07-30T08:38:39.634Z,101004.00
2022-07-30T08:41:09.444Z,101005.00
2022-07-30T08:43:38.499Z,101008.00
2022-07-30T08:46:11.055Z,101013.00
2022-07-30T08:48:41.951Z,101012.00
2022-07-30T08:51:11.303Z,101008.00
2022-07-30T08:53:39.908Z,101009.00
2022-07-30T08:56:09.520Z,101008.00
2022-07-30T08:58:37.585Z,101001.00
2022-07-30T09:01:07.644Z,100997.00
2022-07-30T09:03:44.226Z,101003.00
2022-07-30T09:06:13.235Z,101013.00
2022-07-30T09:08:42.532Z,101001.00
2022-07-30T09:11:12.408Z,101007.00
2022-07-30T09:13:43.054Z,101007.00
2022-07-30T09:16:23.278Z,101020.00
2022-07-30T09:18:52.489Z,101014.00
2022-07-30T09:21:24.079Z,101012.00
2022-07-30T09:24:01.978Z,101010.00
2022-07-30T09:26:32.903Z,101015.00
2022-07-30T09:29:18.083Z,101002.00
2022-07-30T09:31:56.592Z,101013.00
2022-07-30T09:34:27.337Z,100998.00
2022-07-30T09:36:57.773Z,101008.00
2022-07-30T09:39:34.306Z,101001.00
2022-07-30T09:42:05.620Z,101002.00
2022-07-30T09:44:33.864Z,101011.00
2022-07-30T09:47:02.881Z,101003.00
2022-07-30T09:49:31.537Z,101005.00
2022-07-30T09:51:59.703Z,101008.00
2022-07-30T09:57:57.733Z,101003.00
2022-07-30T10:00:29.606Z,101003.00
2022-07-30T10:02:57.789Z,101001.00
2022-07-30T10:05:25.908Z,101001.00
2022-07-30T10:07:58.563Z,101002.00
2022-07-30T10:10:29.669Z,101003.00
2022-07-30T10:13:04.500Z,101003.00
2022-07-30T10:15:35.049Z,101004.00
2022-07-30T10:18:06.007Z,101006.00
2022-07-30T10:20:35.651Z,100997.00
2022-07-30T10:23:08.234Z,101011.00
2022-07-30T10:25:49.656Z,101012.00
2022-07-30T10:28:25.390Z,101011.00
2022-07-30T10:30:54.652Z,101018.00
2022-07-30T10:33:36.305Z,101016.00
2022-07-30T10:36:06.332Z,101014.00
2022-07-30T10:38:43.169Z,101014.00
2022-07-30T10:41:42.769Z,101017.00
2022-07-30T10:45:02.528Z,101010.00
2022-07-30T10:47:40.380Z,101012.00
2022-07-30T10:50:15.829Z,101007.00
2022-07-30T10:52:51.443Z,101007.00
2022-07-30T10:55:37.447Z,101008.00
2022-07-30T10:58:09.675Z,101006.00
2022-07-30T11:01:00.606Z,101012.00
2022-07-30T11:03:40.566Z,101009.00
2022-07-30T11:06:29.404Z,101003.00
2022-07-30T11:08:58.294Z,101010.00
2022-07-30T11:12:05.763Z,101001.00
2022-07-30T11:15:06.793Z,101002.00
2022-07-30T11:18:11.440Z,101003.00
2022-07-30T11:20:48.283Z,101003.00
2022-07-30T11:23:39.980Z,101008.00
2022-07-30T11:26:14.366Z,101003.00
2022-07-30T11:28:45.740Z,101007.00
2022-07-30T11:31:56.590Z,101016.00
2022-07-30T11:34:31.038Z,101004.00
2022-07-30T11:37:18.922Z,101008.00
2022-07-30T11:40:13.595Z,101006.00
2022-07-30T11:42:43.580Z,101011.00
2022-07-30T11:45:33.326Z,101014.00
2022-07-30T11:48:01.942Z,101013.00
2022-07-30T11:50:34.219Z,101019.00
2022-07-30T11:53:05.856Z,101015.00
2022-07-30T11:55:37.277Z,101006.00
2022-07-30T11:58:10.473Z,101024.00
2022-07-30T12:00:41.703Z,101016.00
2022-07-30T12:03:16.485Z,101014.00
2022-07-30T12:05:52.620Z,101013.00
2022-07-30T12:08:33.315Z,101015.00
2022-07-30T12:11:04.798Z,101021.00
2022-07-30T12:13:45.420Z,101018.00
2022-07-30T12:16:17.364Z,101020.00
2022-07-30T12:18:46.776Z,101022.00
2022-07-30T12:21:17.580Z,101028.00
2022-07-30T12:23:56.388Z,101022.00
2022-07-30T12:26:27.170Z,101022.00
2022-07-30T12:28:57.039Z,101021.00
2022-07-30T12:31:25.412Z,101025.00
2022-07-30T12:33:58.870Z,101026.00
2022-07-30T12:36:34.999Z,101026.00
2022-07-30T12:39:06.652Z,101031.00
2022-07-30T12:41:46.654Z,101029.00
2022-07-30T12:44:39.811Z,101032.00
2022-07-30T12:47:20.864Z,101028.00
2022-07-30T12:49:50.255Z,101031.00
2022-07-30T12:52:30.918Z,101032.00
2022-07-30T12:55:05.644Z,101029.00
2022-07-30T12:57:57.081Z,101040.00
2022-07-30T13:00:28.739Z,101036.00
2022-07-30T13:02:57.694Z,101043.00
2022-07-30T13:05:49.738Z,101034.00
2022-07-30T13:08:19.451Z,101033.00
2022-07-30T13:10:59.652Z,101036.00
2022-07-30T13:13:28.528Z,101035.00
2022-07-30T13:16:01.909Z,101034.00
2022-07-30T13:18:31.450Z,101040.00
2022-07-30T13:21:00.882Z,101038.00
2022-07-30T13:23:30.582Z,101034.00
2022-07-30T13:25:58.905Z,101034.00
2022-07-30T13:28:27.937Z,101038.00
2022-07-30T13:30:57.573Z,101045.00
2022-07-30T13:33:25.700Z,101037.00
2022-07-30T13:35:54.218Z,101039.00
2022-07-30T13:38:22.331Z,101042.00
2022-07-30T13:40:51.939Z,101047.00
2022-07-30T13:43:21.203Z,101048.00
2022-07-30T13:45:49.321Z,101041.00
2022-07-30T13:48:17.816Z,101048.00
2022-07-30T13:50:46.704Z,101042.00
2022-07-30T13:53:15.074Z,101038.00
2022-07-30T13:55:43.485Z,101035.00
2022-07-30T13:58:12.893Z,101039.00
2022-07-30T14:00:41.207Z,101033.00
2022-07-30T14:03:12.024Z,101023.00
2022-07-30T14:05:42.094Z,101024.00
2022-07-30T14:08:12.814Z,101024.00
2022-07-30T14:10:41.783Z,101033.00
2022-07-30T14:13:19.019Z,101020.00
2022-07-30T14:15:49.589Z,101021.00
2022-07-30T14:18:18.012Z,101023.00
2022-07-30T14:20:48.742Z,101023.00
2022-07-30T14:23:17.644Z,101027.00
2022-07-30T14:25:46.031Z,101024.00
2022-07-30T14:28:16.335Z,101020.00
2022-07-30T14:30:44.685Z,101021.00
2022-07-30T14:33:12.743Z,101024.00
2022-07-30T14:35:40.833Z,101023.00
2022-07-30T14:38:09.024Z,101024.00
2022-07-30T14:40:37.257Z,101020.00
2022-07-30T14:43:06.553Z,101018.00
2022-07-30T14:45:36.567Z,101014.00
2022-07-30T14:48:05.173Z,101011.00
2022-07-30T14:50:33.374Z,101019.00
2022-07-30T14:53:01.574Z,101018.00
2022-07-30T14:55:29.907Z,101016.00
2022-07-30T14:57:57.959Z,101018.00
2022-07-30T15:00:26.009Z,101024.00
2022-07-30T15:02:55.636Z,101029.00
2022-07-30T15:05:23.930Z,101021.00
2022-07-30T15:07:52.193Z,101023.00
2022-07-30T15:10:20.558Z,101028.00
2022-07-30T15:12:50.702Z,101031.00
2022-07-30T15:15:19.100Z,101026.00
2022-07-30T15:17:50.068Z,101017.00
2022-07-30T15:20:20.539Z,101032.00
2022-07-30T15:22:48.612Z,101029.00
2022-07-30T15:25:16.733Z,101023.00
2022-07-30T15:27:44.888Z,101031.00
2022-07-30T15:30:14.177Z,101020.00
2022-07-30T15:32:42.218Z,101018.00
2022-07-30T15:35:13.645Z,101019.00
2022-07-30T15:37:43.510Z,101020.00
2022-07-30T15:40:12.118Z,101014.00
2022-07-30T15:42:40.710Z,101015.00
2022-07-30T15:45:18.240Z,101021.00
2022-07-30T15:47:47.451Z,101022.00
2022-07-30T15:50:17.208Z,101014.00
2022-07-30T15:52:46.682Z,101011.00
2022-07-30T15:55:14.735Z,101014.00
2022-07-30T15:57:43.303Z,101006.00
2022-07-30T16:00:13.060Z,101013.00
2022-07-30T16:02:42.018Z,101013.00
2022-07-30T16:05:14.168Z,101009.00
2022-07-30T16:07:42.830Z,101006.00
2022-07-30T16:10:12.392Z,100998.00
2022-07-30T16:12:41.963Z,101005.00
2022-07-30T16:15:11.458Z,101007.00
2022-07-30T16:17:40.115Z,101006.00
2022-07-30T16:20:10.190Z,101007.00
2022-07-30T16:22:39.265Z,101003.00
2022-07-30T16:25:08.074Z,101009.00
2022-07-30T16:27:37.595Z,101002.00
2022-07-30T16:30:07.323Z,100989.00
2022-07-30T16:32:35.403Z,101009.00
2022-07-30T16:35:03.561Z,101008.00
2022-07-30T16:37:31.680Z,101007.00
2022-07-30T16:39:59.840Z,101009.00
2022-07-30T16:42:27.914Z,101018.00
2022-07-30T16:44:57.321Z,101011.00
2022-07-30T16:47:25.457Z,101012.00
2022-07-30T16:49:53.597Z,101015.00
2022-07-30T16:52:21.637Z,101014.00
2022-07-30T16:54:54.798Z,101017.00
2022-07-30T16:57:22.856Z,101020.00
2022-07-30T16:59:50.952Z,101022.00
2022-07-30T17:02:20.413Z,101020.00
2022-07-30T17:04:48.539Z,101016.00
2022-07-30T17:07:17.059Z,101018.00
2022-07-30T17:09:45.152Z,101024.00
2022-07-30T17:12:23.295Z,101027.00
2022-07-30T17:14:53.667Z,101030.00
2022-07-30T17:17:23.313Z,101025.00
2022-07-30T17:19:51.699Z,101022.00
2022-07-30T17:22:19.797Z,101030.00
2022-07-30T17:24:47.843Z,101035.00
2022-07-30T17:27:15.941Z,101034.00
2022-07-30T17:29:50.045Z,101037.00
2022-07-30T17:32:20.072Z,101034.00
2022-07-30T17:34:50.210Z,101036.00
2022-07-30T17:37:18.456Z,101037.00
2022-07-30T17:40:28.228Z,101033.00
2022-07-30T17:42:35.161Z,101034.00
2022-07-30T17:45:04.950Z,101039.00
2022-07-30T17:47:33.760Z,101039.00
2022-07-30T17:50:05.186Z,101038.00
2022-07-30T17:52:33.383Z,101039.00
2022-07-30T17:55:01.639Z,101038.00
2022-07-30T17:57:29.675Z,101035.00
2022-07-30T17:59:57.825Z,101041.00
2022-07-30T18:02:27.666Z,101029.00
2022-07-30T18:04:57.193Z,101030.00
2022-07-30T18:07:26.926Z,101035.00
2022-07-30T18:09:55.076Z,101033.00
2022-07-30T18:12:23.378Z,101030.00
2022-07-30T18:14:51.972Z,101021.00
2022-07-30T18:17:20.184Z,101020.00
2022-07-30T18:19:48.285Z,101018.00
2022-07-30T18:22:17.232Z,101018.00
2022-07-30T18:25:00.315Z,101025.00
2022-07-30T18:27:29.800Z,101022.00
2022-07-30T18:29:59.205Z,101018.00
2022-07-30T18:32:27.274Z,101019.00
2022-07-30T18:34:55.420Z,101019.00
2022-07-30T18:37:23.529Z,101014.00
2022-07-30T18:39:51.590Z,101028.00
2022-07-30T18:42:21.020Z,101028.00
2022-07-30T18:44:51.925Z,101029.00
2022-07-30T18:47:20.008Z,101025.00
2022-07-30T18:49:50.165Z,101037.00
2022-07-30T18:52:18.677Z,101038.00
2022-07-30T18:54:46.745Z,101034.00
2022-07-30T18:57:14.904Z,101037.00
2022-07-30T18:59:44.321Z,101039.00
2022-07-30T19:02:12.433Z,101040.00
2022-07-30T19:04:40.870Z,101044.00
2022-07-30T19:07:09.052Z,101044.00
2022-07-30T19:09:37.459Z,101044.00
2022-07-30T19:12:06.823Z,101051.00
2022-07-30T19:14:35.254Z,101050.00
2022-07-30T19:17:13.580Z,101058.00
2022-07-30T19:19:41.971Z,101056.00
2022-07-30T19:22:10.155Z,101066.00
2022-07-30T19:24:38.497Z,101060.00
2022-07-30T19:27:09.941Z,101061.00
2022-07-30T19:29:42.061Z,101069.00
2022-07-30T19:32:11.778Z,101061.00
2022-07-30T19:34:43.341Z,101060.00
2022-07-30T19:37:11.787Z,101054.00
2022-07-30T19:40:06.368Z,101060.00
2022-07-30T19:42:27.975Z,101064.00
2022-07-30T19:44:58.608Z,101063.00
2022-07-30T19:47:35.322Z,101067.00
2022-07-30T19:50:10.053Z,101068.00
2022-07-30T19:52:38.541Z,101072.00
2022-07-30T19:55:17.317Z,101068.00
2022-07-30T19:57:56.058Z,101066.00
2022-07-30T20:00:25.456Z,101074.00
2022-07-30T20:02:54.961Z,101071.00
2022-07-30T20:05:24.721Z,101068.00
2022-07-30T20:07:53.336Z,101060.00
2022-07-30T20:10:23.967Z,101059.00
2022-07-30T20:12:52.105Z,101074.00
2022-07-30T20:15:20.631Z,101059.00
2022-07-30T20:17:48.671Z,101067.00
2022-07-30T20:20:18.157Z,101061.00
2022-07-30T20:22:54.573Z,101051.00
2022-07-30T20:25:22.702Z,101064.00
2022-07-30T20:27:51.067Z,101061.00
2022-07-30T20:30:25.195Z,101058.00
2022-07-30T20:32:53.740Z,101064.00
2022-07-30T20:35:26.504Z,101064.00
2022-07-30T20:37:56.366Z,101067.00
2022-07-30T20:40:26.781Z,101069.00
2022-07-30T20:42:55.614Z,101063.00
2022-07-30T20:45:25.168Z,101070.00
2022-07-30T20:47:56.432Z,101063.00
2022-07-30T20:50:30.830Z,101057.00
2022-07-30T20:53:00.224Z,101055.00
2022-07-30T20:55:28.967Z,101057.00
2022-07-30T20:58:06.951Z,101052.00
